createdAt,value
2017-09-17T10:50:55.072Z,69.5
2017-09-17T10:52:02.803Z,71.1
2017-09-17T10:53:10.278Z,70.4
2017-09-17T10:54:17.760Z,69.8
2017-09-17T10:55:25.238Z,70.6
2017-09-17T10:56:32.716Z,68.8
2017-09-17T10:57:40.440Z,69.5
2017-09-17T10:58:47.588Z,68.5
2017-09-17T10:59:55.069Z,68.7
2017-09-17T11:01:02.545Z,71
2017-09-17T11:02:09.689Z,69.7
2017-09-17T11:03:17.470Z,68.6
2017-09-17T11:05:31.718Z,70.1
2017-09-17T11:06:39.219Z,72
2017-09-17T11:07:46.371Z,70.3
2017-09-17T11:08:53.614Z,70.7
2017-09-17T11:10:01.087Z,68.2
2017-09-17T11:11:08.584Z,69.3
2017-09-17T11:12:16.056Z,69
2017-09-17T11:13:23.195Z,68.1
2017-09-17T11:14:30.792Z,68.1
2017-09-17T11:15:38.267Z,69.8
2017-09-17T11:16:45.744Z,68.2
2017-09-17T11:17:53.219Z,70.2
2017-09-17T11:19:00.359Z,69.7
2017-09-17T11:20:08.187Z,70.6
2017-09-17T11:21:15.701Z,69.9
2017-09-17T11:22:23.204Z,71.2
2017-09-17T11:23:30.358Z,72
2017-09-17T11:24:37.837Z,67.9
2017-09-17T11:25:45.672Z,69.4
2017-09-17T11:26:53.144Z,68.3
2017-09-17T11:28:00.624Z,67.2
2017-09-17T11:29:08.104Z,69.1
2017-09-17T11:30:15.584Z,69.3
2017-09-17T11:31:23.064Z,68.2
2017-09-17T11:32:30.216Z,65.7
2017-09-17T11:33:37.993Z,68.4
2017-09-17T11:34:45.469Z,68.5
2017-09-17T11:35:52.947Z,68
2017-09-17T11:37:00.099Z,65.6
2017-09-17T11:38:07.574Z,67.9
2017-09-17T11:39:14.816Z,65.4
2017-09-17T11:40:21.958Z,65.4
2017-09-17T11:41:29.432Z,64.4
2017-09-17T11:42:36.922Z,68.5
2017-09-17T11:43:44.399Z,67.4
2017-09-17T11:44:51.975Z,67.2
2017-09-17T11:45:59.457Z,66.6
2017-09-17T11:47:06.928Z,68.3
2017-09-17T11:48:14.410Z,65
2017-09-17T11:49:21.882Z,65.2
2017-09-17T11:50:29.038Z,68.6
2017-09-17T11:51:36.511Z,68.3
2017-09-17T11:52:43.990Z,64.8
2017-09-17T11:53:51.472Z,68.4
2017-09-17T11:54:58.943Z,65.7
2017-09-17T11:56:06.521Z,66.9
2017-09-17T11:57:13.996Z,64.9
2017-09-17T11:58:21.468Z,64.8
2017-09-17T11:59:28.604Z,64.9
2017-09-17T12:00:36.077Z,64.2
2017-09-17T12:01:43.647Z,65.5
2017-09-17T12:02:51.124Z,65.5
2017-09-17T12:03:58.602Z,67.1
2017-09-17T12:05:06.082Z,64.3
2017-09-17T12:06:13.547Z,65.5
2017-09-17T12:07:21.133Z,64.8
2017-09-17T12:08:28.619Z,63.9
2017-09-17T12:09:36.087Z,65.4
2017-09-17T12:10:43.564Z,65.5
2017-09-17T12:11:50.695Z,64.7
2017-09-17T12:12:57.840Z,62.9
2017-09-17T12:14:05.331Z,62.1
2017-09-17T12:15:12.802Z,60.1
2017-09-17T12:16:20.282Z,62.4
2017-09-17T12:17:27.760Z,64.4
2017-09-17T12:18:35.243Z,59.8
2017-09-17T12:19:42.724Z,63.7
2017-09-17T12:20:50.201Z,62.4
2017-09-17T12:21:57.344Z,62.9
2017-09-17T12:23:04.820Z,60.7
2017-09-17T12:24:12.305Z,58.2
2017-09-17T12:25:19.881Z,59.7
2017-09-17T12:26:27.361Z,61.3
2017-09-17T12:27:34.508Z,61.3
2017-09-17T12:28:41.983Z,64.4
2017-09-17T12:29:49.460Z,60
2017-09-17T12:30:57.036Z,63.2
2017-09-17T12:32:04.512Z,60.1
2017-09-17T12:33:11.991Z,62.2
2017-09-17T12:34:19.467Z,63.6
2017-09-17T12:35:26.615Z,57.1
2017-09-17T12:36:34.191Z,56.7
2017-09-17T12:37:41.666Z,55.5
2017-09-17T12:38:48.812Z,57.8
2017-09-17T12:39:56.295Z,56.7
2017-09-17T12:41:03.774Z,57.7
2017-09-17T12:42:11.243Z,58.2
2017-09-17T12:43:18.722Z,56.8
2017-09-17T12:44:26.198Z,60
2017-09-17T12:45:33.353Z,57.4
2017-09-17T12:46:40.498Z,58.2
2017-09-17T12:47:47.980Z,58
2017-09-17T12:48:55.120Z,57.2
2017-09-17T12:50:02.264Z,55.7
2017-09-17T12:51:09.737Z,52.2
2017-09-17T12:52:17.572Z,57.3
2017-09-17T12:53:25.056Z,57.2
2017-09-17T12:54:32.534Z,63
2017-09-17T12:55:40.015Z,61.5
2017-09-17T12:56:47.175Z,63.3
2017-09-17T12:57:54.676Z,59.6
2017-09-17T12:59:02.144Z,63.5
2017-09-17T13:00:09.626Z,62.6
2017-09-17T13:01:17.104Z,55.2
2017-09-17T13:02:24.592Z,57.4
2017-09-17T13:03:32.174Z,52.5
2017-09-17T13:04:39.657Z,56
2017-09-17T13:05:47.139Z,57.6
2017-09-17T13:06:54.615Z,59.5
2017-09-17T13:08:02.093Z,58.3
2017-09-17T13:09:09.581Z,54.2
2017-09-17T13:10:17.060Z,52
2017-09-17T13:11:24.199Z,56.3
2017-09-17T13:12:31.677Z,57.1
2017-09-17T13:13:39.549Z,56.4
2017-09-17T13:14:47.020Z,56
2017-09-17T13:15:54.501Z,56.9
2017-09-17T13:17:01.980Z,53.8
2017-09-17T13:18:09.471Z,56.1
2017-09-17T13:19:17.295Z,55.1
2017-09-17T13:20:24.772Z,54.3
2017-09-17T13:21:31.922Z,57
2017-09-17T13:22:38.735Z,56.2
2017-09-17T13:23:46.212Z,53.7
2017-09-17T13:24:54.064Z,54.5
2017-09-17T13:26:01.536Z,54.2
2017-09-17T13:27:08.688Z,57
2017-09-17T13:28:16.165Z,56.1
2017-09-17T13:29:23.645Z,58.5
2017-09-17T13:30:31.426Z,61.5
2017-09-17T13:31:38.901Z,61.2
2017-09-17T13:32:46.382Z,60.6
2017-09-17T13:33:53.864Z,60
2017-09-17T13:35:01.365Z,61.2
2017-09-17T13:36:09.166Z,61.8
2017-09-17T13:37:16.647Z,62.9
2017-09-17T13:38:24.132Z,61.1
2017-09-17T13:39:31.611Z,62.4
2017-09-17T13:40:39.095Z,63.2
2017-09-17T13:41:46.584Z,63.3
2017-09-17T13:42:54.400Z,64.5
2017-09-17T13:44:01.561Z,61.8
2017-09-17T13:45:09.042Z,64
2017-09-17T13:46:16.525Z,64.8
2017-09-17T13:47:23.887Z,63.2
2017-09-17T13:48:31.136Z,62.6
2017-09-17T13:49:38.612Z,60.7
2017-09-17T13:50:46.087Z,62.7
2017-09-17T13:51:53.563Z,62.2
2017-09-17T13:53:01.043Z,63.3
2017-09-17T13:54:08.493Z,63.3
2017-09-17T13:55:15.644Z,62.1
2017-09-17T13:56:22.787Z,60.4
2017-09-17T13:57:30.295Z,60.8
2017-09-17T13:58:37.768Z,60.6
2017-09-17T13:59:45.546Z,59.3
2017-09-17T14:00:53.022Z,60.5
2017-09-17T14:02:00.498Z,61
2017-09-17T14:03:07.979Z,60.8
2017-09-17T14:04:15.457Z,62.3
2017-09-17T14:05:23.183Z,63.5
2017-09-17T14:06:30.661Z,61.4
2017-09-17T14:07:38.134Z,62.8
2017-09-17T14:08:45.617Z,63.1
2017-09-17T14:09:53.090Z,63.1
2017-09-17T14:11:00.569Z,64
2017-09-17T14:12:08.048Z,63
2017-09-17T14:13:15.523Z,63.2
2017-09-17T14:14:23.002Z,63.4
2017-09-17T14:15:30.475Z,62.7
2017-09-17T14:16:38.254Z,64.2
2017-09-17T14:17:45.729Z,65.7
2017-09-17T14:18:53.204Z,65.4
2017-09-17T14:20:00.682Z,65
2017-09-17T14:21:08.164Z,65.9
2017-09-17T14:22:15.892Z,63.7
2017-09-17T14:23:23.031Z,64.1
2017-09-17T14:24:30.525Z,61
2017-09-17T14:25:37.671Z,61.7
2017-09-17T14:26:45.822Z,61.3
2017-09-17T14:27:53.303Z,63.9
2017-09-17T14:29:00.785Z,62.7
2017-09-17T14:30:08.263Z,63.1
2017-09-17T14:31:15.741Z,63.3
2017-09-17T14:32:23.222Z,61
2017-09-17T14:33:30.664Z,60
2017-09-17T14:34:38.142Z,61.1
2017-09-17T14:35:45.621Z,63.6
2017-09-17T14:36:52.769Z,60.3
2017-09-17T14:38:00.244Z,60.2
2017-09-17T14:39:07.823Z,59.8
2017-09-17T14:40:15.307Z,61
2017-09-17T14:41:22.781Z,61.3
2017-09-17T14:42:29.919Z,59.9
2017-09-17T14:43:37.395Z,61.5
2017-09-17T14:44:44.971Z,61.6
2017-09-17T14:45:52.449Z,60.6
2017-09-17T14:46:59.924Z,60.8
2017-09-17T14:48:07.068Z,62.2
2017-09-17T14:49:14.549Z,61.4
2017-09-17T14:50:22.026Z,63.1
2017-09-17T14:51:29.526Z,63.4
2017-09-17T14:52:36.673Z,63.1
2017-09-17T14:53:44.152Z,63.4
2017-09-17T14:54:51.394Z,63.8
2017-09-17T14:55:58.543Z,65.4
2017-09-17T14:57:06.017Z,64.6
2017-09-17T14:58:13.489Z,64.8
2017-09-17T14:59:20.965Z,65.9
2017-09-17T15:00:27.538Z,63.8
2017-09-17T15:01:35.021Z,64.7
2017-09-17T15:02:42.498Z,65.5
2017-09-17T15:03:49.976Z,65.1
2017-09-17T15:04:57.452Z,65.8
2017-09-17T15:06:04.692Z,65.9
2017-09-17T15:07:12.197Z,65.1
2017-09-17T15:08:19.862Z,64.9
2017-09-17T15:09:27.333Z,64
2017-09-17T15:10:34.815Z,64
2017-09-17T15:11:42.288Z,63.9
2017-09-17T15:12:49.436Z,64.1
2017-09-17T15:13:56.909Z,63.9
2017-09-17T15:15:04.383Z,63.8
2017-09-17T15:16:11.856Z,64.4
2017-09-17T15:17:19.633Z,65.1
2017-09-17T15:18:27.107Z,64.2
2017-09-17T15:19:34.581Z,64.8
2017-09-17T15:20:42.058Z,64.7
2017-09-17T15:21:49.535Z,64.4
2017-09-17T15:22:57.309Z,64.2
2017-09-17T15:24:04.789Z,65.2
2017-09-17T15:25:12.264Z,64.5
2017-09-17T15:26:19.740Z,64.5
2017-09-17T15:27:27.216Z,62.7
2017-09-17T15:28:34.996Z,64.6
2017-09-17T15:29:42.128Z,62.5
2017-09-17T15:30:49.612Z,61.9
2017-09-17T15:31:57.093Z,61.3
2017-09-17T15:33:04.565Z,60.4
2017-09-17T15:34:11.715Z,61.5
2017-09-17T15:35:19.192Z,63.5
2017-09-17T15:36:26.330Z,64.1
2017-09-17T15:37:33.482Z,64.1
2017-09-17T15:38:40.957Z,64.1
2017-09-17T15:39:48.786Z,63.3
2017-09-17T15:40:55.945Z,62.2
2017-09-17T15:42:03.420Z,63.8
2017-09-17T15:43:10.893Z,64.1
2017-09-17T15:44:18.368Z,63.9
2017-09-17T15:45:25.814Z,63.2
2017-09-17T15:46:33.292Z,63.4
2017-09-17T15:47:40.769Z,64.1
2017-09-17T15:48:48.243Z,64.1
2017-09-17T15:49:55.718Z,64.2
2017-09-17T15:51:03.197Z,63
2017-09-17T15:52:10.675Z,61.7
2017-09-17T15:53:18.159Z,61.1
2017-09-17T15:54:25.633Z,62.7
2017-09-17T15:55:32.995Z,63
2017-09-17T15:56:40.773Z,62.9
2017-09-17T15:57:47.914Z,62.8
2017-09-17T15:58:55.390Z,63
2017-09-17T16:01:24.597Z,61.8
2017-09-17T16:02:32.377Z,60.6
2017-09-17T16:03:39.853Z,60.3
2017-09-17T16:04:47.332Z,59.2
2017-09-17T16:05:54.474Z,57.2
2017-09-17T16:07:01.948Z,60
2017-09-17T16:08:09.426Z,58.8
2017-09-17T16:09:16.907Z,61.6
2017-09-17T16:10:24.377Z,59.5
2017-09-17T16:11:31.849Z,58.8
2017-09-17T16:12:38.665Z,55.5
2017-09-17T16:13:46.112Z,56.3
2017-09-17T16:14:53.264Z,58.2
2017-09-17T16:16:00.738Z,59
2017-09-17T16:17:08.222Z,58.2
2017-09-17T16:18:15.697Z,61.1
2017-09-17T16:19:23.470Z,58.9
2017-09-17T16:20:30.951Z,59.2
2017-09-17T16:21:38.430Z,58.6
2017-09-17T16:22:45.910Z,59.8
2017-09-17T16:23:53.063Z,62.9
2017-09-17T16:25:00.841Z,61.2
2017-09-17T16:26:07.985Z,61.9
2017-09-17T16:27:15.467Z,57.2
2017-09-17T16:28:22.944Z,58.6
2017-09-17T16:29:30.085Z,61.1
2017-09-17T16:30:37.861Z,64.4
2017-09-17T16:31:45.338Z,59.4
2017-09-17T16:32:52.817Z,60.9
2017-09-17T16:34:00.296Z,60
2017-09-17T16:35:07.770Z,62.3
2017-09-17T16:36:15.215Z,60
2017-09-17T16:37:22.692Z,59.3
2017-09-17T16:38:30.167Z,63.5
2017-09-17T16:39:37.644Z,64.4
2017-09-17T16:40:45.123Z,66.7
2017-09-17T16:41:52.901Z,65.6
2017-09-17T16:43:00.373Z,68.4
2017-09-17T16:44:07.850Z,69.6
2017-09-17T16:45:15.011Z,71.1
2017-09-17T16:46:22.487Z,72.4
2017-09-17T16:47:29.965Z,72.4
2017-09-17T16:48:37.105Z,73.2
2017-09-17T16:49:44.583Z,74.3
2017-09-17T16:50:52.060Z,74.8
2017-09-17T16:51:59.522Z,75.5
2017-09-17T16:53:06.989Z,74.3
2017-09-17T16:54:14.465Z,76
2017-09-17T16:55:21.625Z,76.3
2017-09-17T16:56:28.758Z,78
2017-09-17T16:57:36.534Z,79
2017-09-17T16:58:44.011Z,80.2
2017-09-17T17:00:57.925Z,80.8
2017-09-17T17:02:05.403Z,80.6
2017-09-17T17:03:13.176Z,80.6
2017-09-17T17:04:20.647Z,81
2017-09-17T17:05:28.123Z,81.4
2017-09-17T17:06:35.601Z,81.1
2017-09-17T17:07:42.744Z,81.1
2017-09-17T17:08:50.541Z,80.4
2017-09-17T17:09:58.022Z,81.2
2017-09-17T17:11:05.166Z,81.8
2017-09-17T17:12:12.316Z,82.9
2017-09-17T17:13:19.793Z,84.4
2017-09-17T17:14:27.236Z,85.7
2017-09-17T17:15:34.376Z,85.8
2017-09-17T17:16:41.857Z,86.1
2017-09-17T17:17:48.676Z,86.8
2017-09-17T17:18:55.817Z,87.2
2017-09-17T17:20:03.293Z,86.9
2017-09-17T17:21:10.444Z,87.1
2017-09-17T17:22:17.586Z,87.6
2017-09-17T17:23:24.740Z,88
2017-09-17T17:24:31.896Z,87.7
2017-09-17T17:25:39.029Z,87.8
2017-09-17T17:26:46.871Z,87.7
2017-09-17T17:27:54.013Z,87.6
2017-09-17T17:29:01.484Z,87.5
2017-09-17T17:30:08.299Z,87.4
2017-09-17T17:31:15.434Z,87
2017-09-17T17:32:23.259Z,87.1
2017-09-17T17:33:30.730Z,86.7
2017-09-17T17:34:38.206Z,86.9
2017-09-17T17:35:45.023Z,87.3
2017-09-17T17:36:52.190Z,87.9
2017-09-17T17:37:59.674Z,87.9
2017-09-17T17:39:07.146Z,88.3
2017-09-17T17:40:14.289Z,88.1
2017-09-17T17:41:21.429Z,87.9
2017-09-17T17:42:28.571Z,88.3
2017-09-17T17:43:36.053Z,88.5
2017-09-17T17:44:43.532Z,89
2017-09-17T17:45:51.008Z,89.1
2017-09-17T17:46:58.155Z,88.7
2017-09-17T17:48:05.293Z,89.9
2017-09-17T17:49:13.065Z,90.2
2017-09-17T17:50:20.542Z,89.7
2017-09-17T17:51:27.686Z,90
2017-09-17T17:52:35.155Z,89.7
2017-09-17T17:53:42.301Z,90.1
2017-09-17T17:54:50.068Z,90
2017-09-17T17:55:57.217Z,89.6
2017-09-17T17:57:04.358Z,90
2017-09-17T17:58:11.839Z,89.6
2017-09-17T17:59:19.309Z,89.5
2017-09-17T18:00:26.783Z,89.5
2017-09-17T18:01:33.586Z,89.6
2017-09-17T18:02:41.063Z,89.9
2017-09-17T18:03:48.541Z,90
2017-09-17T18:04:56.019Z,89.7
2017-09-17T18:06:03.799Z,89.8
2017-09-17T18:07:11.270Z,90
2017-09-17T18:08:18.749Z,89.9
2017-09-17T18:09:25.883Z,89.8
2017-09-17T18:10:33.026Z,90.1
2017-09-17T18:11:40.188Z,90.2
2017-09-17T18:12:46.994Z,90.6
2017-09-17T18:13:54.137Z,90.6
2017-09-17T18:15:01.279Z,90.4
2017-09-17T18:16:08.754Z,90.6
2017-09-17T18:17:16.244Z,90.6
2017-09-17T18:18:23.717Z,90.8
2017-09-17T18:19:30.852Z,91
2017-09-17T18:20:38.008Z,90.9
2017-09-17T18:21:45.483Z,90.9
2017-09-17T18:22:52.956Z,90.8
2017-09-17T18:24:00.096Z,90.9
2017-09-17T18:25:07.241Z,91
2017-09-17T18:26:14.056Z,91.3
2017-09-17T18:27:21.198Z,90.9
2017-09-17T18:28:28.689Z,90.9
2017-09-17T18:29:36.166Z,91
2017-09-17T18:30:43.310Z,90.8
2017-09-17T18:31:50.786Z,91.1
2017-09-17T18:32:58.267Z,91.4
2017-09-17T18:34:05.071Z,91.2
2017-09-17T18:35:11.892Z,91.3
2017-09-17T18:36:19.028Z,91.5
2017-09-17T18:37:25.831Z,91.9
2017-09-17T18:38:32.998Z,91.5
2017-09-17T18:39:40.471Z,91.2
2017-09-17T18:40:47.937Z,91.1
2017-09-17T18:41:55.410Z,91.1
2017-09-17T18:43:02.546Z,91.1
2017-09-17T18:45:32.086Z,91.8
2017-09-17T18:46:39.556Z,92.3
2017-09-17T18:47:47.030Z,92.4
2017-09-17T18:48:54.169Z,92.4
2017-09-17T18:50:01.644Z,92.3
2017-09-17T18:51:08.465Z,92.2
2017-09-17T18:52:15.938Z,92.4
2017-09-17T18:53:23.419Z,92.5
2017-09-17T18:54:31.234Z,92.5
2017-09-17T18:55:38.034Z,92.9
2017-09-17T18:56:45.169Z,93.2
2017-09-17T18:57:52.306Z,93.2
2017-09-17T18:58:59.443Z,92.7
2017-09-17T19:00:06.611Z,92.7
2017-09-17T19:01:14.085Z,92.8
2017-09-17T19:02:21.556Z,92.7
2017-09-17T19:03:29.042Z,92.6
2017-09-17T19:04:36.511Z,92.4
2017-09-17T19:05:44.020Z,92.4
2017-09-17T19:06:51.161Z,92.4
2017-09-17T19:07:58.636Z,92.2
2017-09-17T19:09:05.782Z,92.2
2017-09-17T19:10:12.920Z,92.7
2017-09-17T19:11:19.726Z,92
2017-09-17T19:12:26.527Z,92
2017-09-17T19:13:34.008Z,92.7
2017-09-17T19:14:41.149Z,92.9
2017-09-17T19:15:48.626Z,92.6
2017-09-17T19:16:55.771Z,92.7
2017-09-17T19:18:03.251Z,93.2
2017-09-17T19:19:10.719Z,92.7
2017-09-17T19:20:18.192Z,92.8
2017-09-17T19:21:25.352Z,93.1
2017-09-17T19:22:32.520Z,93
2017-09-17T19:23:39.664Z,93.5
2017-09-17T19:24:47.145Z,93.6
2017-09-17T19:25:54.288Z,93.7
2017-09-17T19:27:01.767Z,93.5
2017-09-17T19:28:09.252Z,93
2017-09-17T19:29:16.387Z,93.1
2017-09-17T19:30:23.570Z,93.8
2017-09-17T19:31:30.382Z,93.8
2017-09-17T19:32:37.852Z,93.7
2017-09-17T19:33:45.365Z,94
2017-09-17T19:34:52.844Z,93.8
2017-09-17T19:36:00.316Z,94.4
2017-09-17T19:37:07.786Z,94.2
2017-09-17T19:38:15.264Z,94
2017-09-17T19:39:23.087Z,94.1
2017-09-17T19:40:30.588Z,93.8
2017-09-17T19:41:38.075Z,93.8
2017-09-17T19:42:45.613Z,93.9
2017-09-17T19:43:53.105Z,94.3
2017-09-17T19:45:01.041Z,94.5
2017-09-17T19:46:08.517Z,94.6
2017-09-17T19:47:15.986Z,94.4
2017-09-17T19:48:23.503Z,94.2
2017-09-17T19:49:30.974Z,94.2
2017-09-17T19:50:38.476Z,94
2017-09-17T19:51:45.945Z,93.9
2017-09-17T19:52:53.423Z,94.5
2017-09-17T19:54:00.909Z,94.4
2017-09-17T19:55:08.385Z,94.6
2017-09-17T19:56:15.863Z,94.3
2017-09-17T19:57:23.349Z,94.4
2017-09-17T19:58:30.821Z,94.6
2017-09-17T19:59:38.293Z,94.3
2017-09-17T20:00:46.066Z,94
2017-09-17T20:01:53.566Z,94.4
2017-09-17T20:03:01.034Z,94.4
2017-09-17T20:04:08.514Z,93.8
2017-09-17T20:05:15.650Z,94.3
2017-09-17T20:06:24.868Z,93.8
2017-09-17T20:07:32.340Z,94.1
2017-09-17T20:08:39.161Z,94.2
2017-09-17T20:09:46.642Z,94.2
2017-09-17T20:10:54.119Z,94
2017-09-17T20:12:01.904Z,94
2017-09-17T20:13:09.376Z,93.7
2017-09-17T20:14:16.842Z,94.8
2017-09-17T20:15:24.316Z,95.5
2017-09-17T20:16:31.784Z,95.1
2017-09-17T20:17:39.605Z,95
2017-09-17T20:18:46.739Z,95
2017-09-17T20:19:54.217Z,95.3
2017-09-17T20:21:01.687Z,95.8
2017-09-17T20:22:09.160Z,95.8
2017-09-17T20:23:16.624Z,95.7
2017-09-17T20:24:24.091Z,95.6
2017-09-17T20:25:31.559Z,95.7
2017-09-17T20:26:38.701Z,95.6
2017-09-17T20:27:46.168Z,96
2017-09-17T20:28:53.606Z,95.9
2017-09-17T20:30:01.076Z,96
2017-09-17T20:31:08.206Z,95.9
2017-09-17T20:32:15.679Z,96.2
2017-09-17T20:33:23.143Z,96
2017-09-17T20:34:30.614Z,95.8
2017-09-17T20:35:38.098Z,96
2017-09-17T20:36:45.583Z,96.1
2017-09-17T20:37:53.046Z,96
2017-09-17T20:39:00.180Z,96.4
2017-09-17T20:40:07.961Z,96.7
2017-09-17T20:41:15.091Z,96.6
2017-09-17T20:42:22.556Z,96.6
2017-09-17T20:43:30.035Z,96
2017-09-17T20:44:37.504Z,95.9
2017-09-17T20:45:45.271Z,95.9
2017-09-17T20:46:52.739Z,95.4
2017-09-17T20:48:00.211Z,95.8
2017-09-17T20:49:07.353Z,95.8
2017-09-17T20:50:14.822Z,96
2017-09-17T20:51:22.290Z,95.4
2017-09-17T20:52:29.761Z,95.7
2017-09-17T20:53:37.236Z,95.6
2017-09-17T20:54:44.706Z,95.5
2017-09-17T20:55:52.176Z,95.3
2017-09-17T20:56:59.622Z,95.4
2017-09-17T20:58:06.758Z,95.4
2017-09-17T20:59:14.226Z,95.3
2017-09-17T21:00:21.689Z,95.2
2017-09-17T21:01:29.161Z,95
2017-09-17T21:02:36.929Z,95.5
2017-09-17T21:03:44.077Z,95.3
2017-09-17T21:04:51.545Z,95
2017-09-17T21:05:58.690Z,95.2
2017-09-17T21:07:06.160Z,95.4
2017-09-17T21:08:13.625Z,95.4
2017-09-17T21:09:21.095Z,95.3
2017-09-17T21:10:28.234Z,95.3
2017-09-17T21:11:35.713Z,96.1
2017-09-17T21:12:43.177Z,96.5
2017-09-17T21:13:50.997Z,97.1
2017-09-17T21:14:58.464Z,97.3
2017-09-17T21:16:05.959Z,97.1
2017-09-17T21:17:13.093Z,97
2017-09-17T21:18:20.564Z,96.7
2017-09-17T21:19:28.334Z,96.5
2017-09-17T21:20:35.471Z,96.9
2017-09-17T21:21:42.944Z,96.6
2017-09-17T21:22:50.419Z,96.7
2017-09-17T21:23:57.888Z,96.6
2017-09-17T21:25:05.656Z,96.5
2017-09-17T21:26:13.128Z,95.8
2017-09-17T21:27:20.600Z,95.7
2017-09-17T21:28:28.069Z,95.7
2017-09-17T21:29:35.204Z,95.7
2017-09-17T21:30:42.679Z,95.9
2017-09-17T21:31:49.813Z,95.9
2017-09-17T21:32:57.278Z,96.5
2017-09-17T21:34:04.745Z,96.2
2017-09-17T21:35:12.214Z,95.3
2017-09-17T21:36:19.980Z,96.3
2017-09-17T21:37:27.450Z,97.1
2017-09-17T21:38:34.925Z,97.2
2017-09-17T21:39:42.391Z,96.7
2017-09-17T21:40:49.823Z,96.1
2017-09-17T21:41:57.292Z,96.6
2017-09-17T21:43:04.768Z,96.9
2017-09-17T21:44:12.237Z,96.4
2017-09-17T21:45:19.379Z,96.7
2017-09-17T21:46:27.152Z,95.3
2017-09-17T21:47:34.634Z,96
2017-09-17T21:48:42.105Z,96.1
2017-09-17T21:49:49.571Z,96.6
2017-09-17T21:50:57.040Z,96.9
2017-09-17T21:52:04.811Z,96.7
2017-09-17T21:53:11.946Z,96.4
2017-09-17T21:54:19.089Z,96.7
2017-09-17T21:55:26.560Z,96.4
2017-09-17T21:56:33.699Z,96.4
2017-09-17T21:57:41.467Z,96.1
2017-09-17T21:58:48.938Z,96.3
2017-09-17T21:59:56.070Z,95.7
2017-09-17T22:01:03.537Z,96.1
2017-09-17T22:03:32.693Z,96.2
2017-09-17T22:04:39.828Z,95.8
2017-09-17T22:05:47.293Z,96.3
2017-09-17T22:06:54.780Z,96.3
2017-09-17T22:08:02.242Z,96.2
2017-09-17T22:09:10.013Z,96.4
2017-09-17T22:10:17.481Z,96.3
2017-09-17T22:11:24.619Z,96
2017-09-17T22:12:32.086Z,95.9
2017-09-17T22:13:39.566Z,96
2017-09-17T22:14:47.330Z,95.9
2017-09-17T22:15:54.796Z,95.7
2017-09-17T22:17:02.262Z,95.7
2017-09-17T22:18:09.728Z,95.8
2017-09-17T22:19:16.864Z,95.8
2017-09-17T22:20:24.633Z,96
2017-09-17T22:21:31.768Z,96.2
2017-09-17T22:22:39.234Z,96.5
2017-09-17T22:23:46.701Z,95.6
2017-09-17T22:24:53.840Z,96.1
2017-09-17T22:26:01.274Z,95.9
2017-09-17T22:27:08.742Z,96.2
2017-09-17T22:29:37.929Z,95.7
2017-09-17T22:30:45.400Z,95.8
